createdAt,value
2018-03-20T00:00:13.912Z,-0.23
2018-03-20T00:01:13.922Z,-0.26
2018-03-20T00:02:13.911Z,-0.3
2018-03-20T00:03:13.918Z,-0.35
2018-03-20T00:04:13.927Z,-0.36
2018-03-20T00:05:13.924Z,-0.47
2018-03-20T00:06:13.955Z,-0.46
2018-03-20T00:07:13.927Z,-0.39
2018-03-20T00:08:13.954Z,-0.43
2018-03-20T00:09:13.942Z,-0.43
2018-03-20T00:10:13.939Z,-0.39
2018-03-20T00:11:14.221Z,-0.46
2018-03-20T00:12:13.957Z,-0.45
2018-03-20T00:13:13.949Z,-0.39
2018-03-20T00:14:13.954Z,-0.5
2018-03-20T00:15:13.965Z,-0.61
2018-03-20T00:16:13.984Z,-0.56
2018-03-20T00:17:13.954Z,-0.63
2018-03-20T00:18:13.956Z,-0.73
2018-03-20T00:19:13.962Z,-0.65
2018-03-20T00:20:13.963Z,-0.67
2018-03-20T00:21:13.985Z,-0.7
2018-03-20T00:22:13.967Z,-0.68
2018-03-20T00:23:13.973Z,-0.65
2018-03-20T00:24:13.967Z,-0.64
2018-03-20T00:25:13.974Z,-0.58
2018-03-20T00:26:13.982Z,-0.56
2018-03-20T00:27:14.042Z,-0.6
2018-03-20T00:28:13.978Z,-0.56
2018-03-20T00:29:13.987Z,-0.53
2018-03-20T00:30:13.982Z,-0.54
2018-03-20T00:31:13.987Z,-0.5
2018-03-20T00:32:14.020Z,-0.53
2018-03-20T00:33:14.013Z,-0.53
2018-03-20T00:34:13.993Z,-0.53
2018-03-20T00:35:14.001Z,-0.49
2018-03-20T00:36:14.012Z,-0.49
2018-03-20T00:37:14.017Z,-0.49
2018-03-20T00:38:14.023Z,-0.47
2018-03-20T00:39:14.040Z,-0.49
2018-03-20T00:40:14.007Z,-0.49
2018-03-20T00:41:14.032Z,-0.49
2018-03-20T00:42:14.015Z,-0.51
2018-03-20T00:43:14.025Z,-0.53
2018-03-20T00:44:14.027Z,-0.54
2018-03-20T00:45:14.027Z,-0.5
2018-03-20T00:46:14.196Z,-0.49
2018-03-20T00:47:14.034Z,-0.43
2018-03-20T00:48:14.040Z,-0.49
2018-03-20T00:49:14.042Z,-0.49
2018-03-20T00:50:14.089Z,-0.46
2018-03-20T00:51:14.082Z,-0.45
2018-03-20T00:52:14.052Z,-0.43
2018-03-20T00:53:14.046Z,-0.39
2018-03-20T00:54:14.060Z,-0.39
2018-03-20T00:55:14.055Z,-0.39
2018-03-20T00:56:14.072Z,-0.35
2018-03-20T00:57:14.081Z,-0.39
2018-03-20T00:58:14.053Z,-0.39
2018-03-20T00:59:14.068Z,-0.36
2018-03-20T01:00:14.069Z,-0.36
2018-03-20T01:01:14.105Z,-0.35
2018-03-20T01:02:14.087Z,-0.35
2018-03-20T01:03:14.076Z,-0.37
2018-03-20T01:04:14.091Z,-0.37
2018-03-20T01:05:14.085Z,-0.49
2018-03-20T01:06:14.123Z,-0.46
2018-03-20T01:07:14.089Z,-0.49
2018-03-20T01:08:14.093Z,-0.46
2018-03-20T01:09:14.093Z,-0.5
2018-03-20T01:10:14.124Z,-0.49
2018-03-20T01:11:14.115Z,-0.49
2018-03-20T01:12:14.104Z,-0.5
2018-03-20T01:13:14.119Z,-0.5
2018-03-20T01:14:14.125Z,-0.53
2018-03-20T01:15:14.116Z,-0.51
2018-03-20T01:16:14.124Z,-0.57
2018-03-20T01:17:14.156Z,-0.8
2018-03-20T01:18:14.131Z,-0.8
2018-03-20T01:19:14.133Z,-0.78
2018-03-20T01:20:14.144Z,-0.77
2018-03-20T01:21:14.147Z,-0.8
2018-03-20T01:22:14.315Z,-0.82
2018-03-20T01:23:14.153Z,-0.84
2018-03-20T01:24:14.163Z,-0.82
2018-03-20T01:25:14.303Z,-0.81
2018-03-20T01:26:14.151Z,-0.82
2018-03-20T01:27:14.187Z,-0.81
2018-03-20T01:28:14.162Z,-0.77
2018-03-20T01:29:14.156Z,-0.75
2018-03-20T01:30:14.159Z,-0.77
2018-03-20T01:31:14.159Z,-0.75
2018-03-20T01:32:14.168Z,-0.75
2018-03-20T01:33:14.175Z,-0.77
2018-03-20T01:34:14.226Z,-0.75
2018-03-20T01:35:14.189Z,-0.77
2018-03-20T01:36:14.185Z,-0.77
2018-03-20T01:37:14.204Z,-0.75
2018-03-20T01:38:14.183Z,-0.75
2018-03-20T01:39:14.208Z,-0.74
2018-03-20T01:40:14.199Z,-0.71
2018-03-20T01:41:14.193Z,-0.73
2018-03-20T01:42:14.233Z,-0.7
2018-03-20T01:43:14.217Z,-0.73
2018-03-20T01:44:14.210Z,-0.78
2018-03-20T01:45:14.223Z,-0.75
2018-03-20T01:46:14.239Z,-0.75
2018-03-20T01:47:14.245Z,-0.73
2018-03-20T01:48:14.236Z,-0.74
2018-03-20T01:49:14.227Z,-0.73
2018-03-20T01:50:14.235Z,-0.77
2018-03-20T01:51:14.243Z,-0.81
2018-03-20T01:52:14.263Z,-0.86
2018-03-20T01:53:14.273Z,-0.91
2018-03-20T01:54:14.335Z,-0.98
2018-03-20T01:55:14.272Z,-0.95
2018-03-20T01:56:14.256Z,-0.95
2018-03-20T01:57:14.316Z,-0.93
2018-03-20T01:58:14.270Z,-0.93
2018-03-20T01:59:14.265Z,-0.93
2018-03-20T02:00:14.321Z,-0.92
2018-03-20T02:01:14.277Z,-0.89
2018-03-20T02:02:14.296Z,-0.89
2018-03-20T02:03:14.291Z,-0.91
2018-03-20T02:04:14.295Z,-0.91
2018-03-20T02:05:14.268Z,-0.88
2018-03-20T02:06:14.276Z,-0.91
2018-03-20T02:07:14.300Z,-0.86
2018-03-20T02:08:14.293Z,-0.85
2018-03-20T02:09:14.373Z,-0.91
2018-03-20T02:10:14.303Z,-0.95
2018-03-20T02:11:14.320Z,-1.03
2018-03-20T02:12:14.318Z,-1.03
2018-03-20T02:13:14.301Z,-1.08
2018-03-20T02:14:14.496Z,-1.08
2018-03-20T02:15:14.300Z,-1.13
2018-03-20T02:16:14.298Z,-1.12
2018-03-20T02:17:14.467Z,-1.13
2018-03-20T02:18:14.312Z,-1.12
2018-03-20T02:19:14.318Z,-1.12
2018-03-20T02:20:14.318Z,-1.11
2018-03-20T02:21:14.311Z,-1.13
2018-03-20T02:22:14.339Z,-1.13
2018-03-20T02:23:14.322Z,-1.12
2018-03-20T02:24:14.321Z,-1.12
2018-03-20T02:25:14.341Z,-1.12
2018-03-20T02:26:14.326Z,-1.11
2018-03-20T02:27:14.347Z,-1.12
2018-03-20T02:28:14.321Z,-1.37
2018-03-20T02:29:14.314Z,-1.33
2018-03-20T02:30:14.342Z,-1.26
2018-03-20T02:31:14.349Z,-1.26
2018-03-20T02:32:14.351Z,-1.23
2018-03-20T02:33:14.344Z,-1.3
2018-03-20T02:34:14.351Z,-1.4
2018-03-20T02:35:14.357Z,-1.4
2018-03-20T02:36:14.359Z,-1.41
2018-03-20T02:37:14.364Z,-1.53
2018-03-20T02:38:14.385Z,-1.5
2018-03-20T02:39:14.360Z,-1.47
2018-03-20T02:40:14.368Z,-1.47
2018-03-20T02:41:14.362Z,-1.44
2018-03-20T02:42:14.362Z,-1.43
2018-03-20T02:43:14.372Z,-1.43
2018-03-20T02:44:14.357Z,-1.44
2018-03-20T02:45:14.360Z,-1.41
2018-03-20T02:46:14.371Z,-1.43
2018-03-20T02:47:14.379Z,-1.41
2018-03-20T02:48:14.377Z,-1.43
2018-03-20T02:49:14.394Z,-1.41
2018-03-20T02:50:14.391Z,-1.41
2018-03-20T02:51:14.398Z,-1.4
2018-03-20T02:52:14.386Z,-1.44
2018-03-20T02:53:14.400Z,-1.4
2018-03-20T02:54:14.435Z,-1.43
2018-03-20T02:55:14.397Z,-1.41
2018-03-20T02:56:14.397Z,-1.41
2018-03-20T02:57:14.405Z,-1.4
2018-03-20T02:58:14.414Z,-1.36
2018-03-20T02:59:14.425Z,-1.37
2018-03-20T03:00:14.416Z,-1.39
2018-03-20T03:01:14.433Z,-1.39
2018-03-20T03:02:14.422Z,-1.43
2018-03-20T03:03:14.421Z,-1.43
2018-03-20T03:04:14.442Z,-1.43
2018-03-20T03:05:14.423Z,-1.43
2018-03-20T03:06:14.421Z,-1.46
2018-03-20T03:07:14.430Z,-1.44
2018-03-20T03:08:14.430Z,-1.43
2018-03-20T03:09:14.455Z,-1.48
2018-03-20T03:10:14.432Z,-1.51
2018-03-20T03:11:14.433Z,-1.57
2018-03-20T03:12:14.463Z,-1.6
2018-03-20T03:13:14.439Z,-1.74
2018-03-20T03:14:14.523Z,-1.96
2018-03-20T03:15:14.448Z,-2.07
2018-03-20T03:16:14.451Z,-2.05
2018-03-20T03:17:14.478Z,-1.99
2018-03-20T03:18:14.462Z,-2.07
2018-03-20T03:19:14.469Z,-2.05
2018-03-20T03:20:14.468Z,-1.99
2018-03-20T03:21:14.492Z,-2
2018-03-20T03:22:14.513Z,-1.99
2018-03-20T03:23:14.516Z,-1.96
2018-03-20T03:24:14.493Z,-1.93
2018-03-20T03:25:14.489Z,-1.95
2018-03-20T03:26:14.506Z,-1.91
2018-03-20T03:27:14.499Z,-1.89
2018-03-20T03:28:14.576Z,-1.89
2018-03-20T03:29:14.497Z,-1.88
2018-03-20T03:30:14.524Z,-1.91
2018-03-20T03:31:14.510Z,-1.89
2018-03-20T03:32:14.525Z,-1.86
2018-03-20T03:33:14.542Z,-1.89
2018-03-20T03:34:14.531Z,-1.91
2018-03-20T03:35:14.528Z,-1.92
2018-03-20T03:36:14.524Z,-1.92
2018-03-20T03:37:14.522Z,-1.91
2018-03-20T03:38:14.801Z,-1.91
2018-03-20T03:39:14.557Z,-1.99
2018-03-20T03:40:14.533Z,-2.09
2018-03-20T03:41:14.548Z,-2.07
2018-03-20T03:42:14.568Z,-2.11
2018-03-20T03:43:14.581Z,-2.09
2018-03-20T03:44:14.558Z,-2.19
2018-03-20T03:45:14.565Z,-2.17
2018-03-20T03:46:14.552Z,-2.23
2018-03-20T03:47:14.557Z,-2.21
2018-03-20T03:48:14.596Z,-2.19
2018-03-20T03:49:14.580Z,-2.19
2018-03-20T03:50:14.568Z,-2.19
2018-03-20T03:51:14.620Z,-2.19
2018-03-20T03:52:14.573Z,-2.17
2018-03-20T03:53:14.593Z,-2.19
2018-03-20T03:54:14.569Z,-2.17
2018-03-20T03:55:14.576Z,-2.14
2018-03-20T03:56:14.607Z,-2.14
2018-03-20T03:57:14.622Z,-2.14
2018-03-20T03:58:14.581Z,-2.13
2018-03-20T03:59:14.614Z,-2.13
2018-03-20T04:00:14.601Z,-2.17
2018-03-20T04:01:14.716Z,-2.13
2018-03-20T04:02:14.604Z,-2.13
2018-03-20T04:03:14.616Z,-2.13
2018-03-20T04:04:14.638Z,-2.11
2018-03-20T04:05:14.604Z,-2.11
2018-03-20T04:06:14.617Z,-2.13
2018-03-20T04:07:14.628Z,-2.1
2018-03-20T04:08:14.626Z,-2.1
2018-03-20T04:09:14.639Z,-2.09
2018-03-20T04:10:14.646Z,-2.1
2018-03-20T04:11:14.613Z,-2.13
2018-03-20T04:12:14.623Z,-2.13
2018-03-20T04:13:14.628Z,-2.13
2018-03-20T04:14:14.639Z,-2.13
2018-03-20T04:15:14.646Z,-2.11
2018-03-20T04:16:14.638Z,-2.13
2018-03-20T04:17:14.652Z,-2.11
2018-03-20T04:18:14.768Z,-2.21
2018-03-20T04:19:14.653Z,-2.21
2018-03-20T04:20:14.663Z,-2.31
2018-03-20T04:21:14.683Z,-2.37
2018-03-20T04:22:14.674Z,-2.51
2018-03-20T04:23:14.666Z,-2.64
2018-03-20T04:24:14.671Z,-2.81
2018-03-20T04:25:14.665Z,-2.86
2018-03-20T04:26:14.676Z,-2.9
2018-03-20T04:27:14.680Z,-2.93
2018-03-20T04:28:14.697Z,-2.99
2018-03-20T04:29:14.712Z,-2.99
2018-03-20T04:30:14.693Z,-3.02
2018-03-20T04:31:14.692Z,-2.97
2018-03-20T04:32:14.698Z,-3
2018-03-20T04:33:14.699Z,-2.99
2018-03-20T04:34:14.737Z,-3.09
2018-03-20T04:35:14.732Z,-2.96
2018-03-20T04:36:14.727Z,-2.94
2018-03-20T04:37:14.728Z,-2.88
2018-03-20T04:38:14.742Z,-2.86
2018-03-20T04:39:14.740Z,-2.88
2018-03-20T04:40:14.760Z,-2.94
2018-03-20T04:41:14.754Z,-2.89
2018-03-20T04:42:14.763Z,-2.82
2018-03-20T04:43:14.772Z,-2.76
2018-03-20T04:44:14.761Z,-2.69
2018-03-20T04:45:14.778Z,-2.71
2018-03-20T04:46:14.775Z,-2.72
2018-03-20T04:47:14.761Z,-2.69
2018-03-20T04:48:14.836Z,-2.65
2018-03-20T04:49:14.785Z,-2.62
2018-03-20T04:50:14.777Z,-2.62
2018-03-20T04:51:14.802Z,-2.74
2018-03-20T04:52:14.799Z,-2.66
2018-03-20T04:53:14.789Z,-2.64
2018-03-20T04:54:14.807Z,-2.6
2018-03-20T04:55:14.812Z,-2.6
2018-03-20T04:56:14.839Z,-2.6
2018-03-20T04:57:14.822Z,-2.55
2018-03-20T04:58:14.808Z,-2.54
2018-03-20T04:59:15.008Z,-2.58
2018-03-20T05:00:14.840Z,-2.57
2018-03-20T05:01:14.840Z,-2.55
2018-03-20T05:02:14.818Z,-2.54
2018-03-20T05:03:14.847Z,-2.51
2018-03-20T05:04:14.840Z,-2.65
2018-03-20T05:05:14.834Z,-2.6
2018-03-20T05:06:14.846Z,-2.62
2018-03-20T05:07:14.868Z,-2.61
2018-03-20T05:08:14.847Z,-2.57
2018-03-20T05:09:14.856Z,-2.54
2018-03-20T05:10:14.872Z,-2.51
2018-03-20T05:11:14.886Z,-2.51
2018-03-20T05:12:15.003Z,-2.51
2018-03-20T05:13:14.861Z,-2.5
2018-03-20T05:14:14.862Z,-2.47
2018-03-20T05:15:14.867Z,-2.47
2018-03-20T05:16:14.890Z,-2.5
2018-03-20T05:17:14.877Z,-2.5
2018-03-20T05:18:14.870Z,-2.47
2018-03-20T05:19:14.881Z,-2.45
2018-03-20T05:20:14.888Z,-2.45
2018-03-20T05:21:14.910Z,-2.45
2018-03-20T05:22:14.904Z,-2.47
2018-03-20T05:23:14.892Z,-2.47
2018-03-20T05:24:14.902Z,-2.45
2018-03-20T05:25:14.896Z,-2.44
2018-03-20T05:26:14.897Z,-2.43
2018-03-20T05:27:14.917Z,-2.44
2018-03-20T05:28:14.916Z,-2.41
2018-03-20T05:29:14.905Z,-2.43
2018-03-20T05:30:14.914Z,-2.44
2018-03-20T05:31:14.911Z,-2.43
2018-03-20T05:32:14.920Z,-2.41
2018-03-20T05:33:14.930Z,-2.41
2018-03-20T05:34:14.935Z,-2.41
2018-03-20T05:35:14.951Z,-2.44
2018-03-20T05:36:14.948Z,-2.41
2018-03-20T05:37:14.936Z,-2.4
2018-03-20T05:38:14.942Z,-2.37
2018-03-20T05:39:14.937Z,-2.37
2018-03-20T05:40:14.965Z,-2.34
2018-03-20T05:41:14.946Z,-2.38
2018-03-20T05:42:14.954Z,-2.38
2018-03-20T05:43:14.974Z,-2.41
2018-03-20T05:44:14.959Z,-2.4
2018-03-20T05:45:14.971Z,-2.37
2018-03-20T05:46:14.962Z,-2.37
2018-03-20T05:47:14.962Z,-2.36
2018-03-20T05:48:14.992Z,-2.33
2018-03-20T05:49:14.976Z,-2.31
2018-03-20T05:50:14.988Z,-2.31
2018-03-20T05:51:14.997Z,-2.3
2018-03-20T05:52:14.981Z,-2.31
2018-03-20T05:53:14.999Z,-2.28
2018-03-20T05:54:14.992Z,-2.26
2018-03-20T05:55:15.044Z,-2.28
2018-03-20T05:56:15.004Z,-2.27
2018-03-20T05:57:14.992Z,-2.28
2018-03-20T05:58:15.441Z,-2.27
2018-03-20T05:59:14.995Z,-2.27
2018-03-20T06:00:15.007Z,-2.27
2018-03-20T06:01:14.997Z,-2.26
2018-03-20T06:02:15.000Z,-2.24
2018-03-20T06:03:15.148Z,-2.23
2018-03-20T06:04:15.005Z,-2.23
2018-03-20T06:05:14.999Z,-2.21
2018-03-20T06:06:15.208Z,-2.21
2018-03-20T06:07:15.027Z,-2.19
2018-03-20T06:08:15.442Z,-2.21
2018-03-20T06:09:15.034Z,-2.2
2018-03-20T06:10:15.034Z,-2.19
2018-03-20T06:11:15.034Z,-2.19
2018-03-20T06:12:15.034Z,-2.17
2018-03-20T06:13:15.074Z,-2.2
2018-03-20T06:14:15.036Z,-2.17
2018-03-20T06:15:15.042Z,-2.2
2018-03-20T06:16:15.051Z,-2.19
2018-03-20T06:17:15.065Z,-2.16
2018-03-20T06:18:15.073Z,-2.17
2018-03-20T06:19:15.047Z,-2.16
2018-03-20T06:20:15.106Z,-2.14
2018-03-20T06:21:15.046Z,-2.11
2018-03-20T06:22:15.067Z,-2.11
2018-03-20T06:23:15.087Z,-2.11
2018-03-20T06:24:15.079Z,-2.09
2018-03-20T06:25:15.068Z,-2.07
2018-03-20T06:26:15.093Z,-2.07
2018-03-20T06:27:20.891Z,-2.07
2018-03-20T06:28:20.982Z,-2.07
2018-03-20T06:29:18.256Z,-2.05
2018-03-20T06:30:20.894Z,-2.05
2018-03-20T06:31:21.181Z,-2.05
2018-03-20T06:32:15.096Z,-2.03
2018-03-20T06:33:15.099Z,-2.02
2018-03-20T06:34:15.099Z,-1.99
2018-03-20T06:35:15.150Z,-1.98
2018-03-20T06:36:15.110Z,-1.96
2018-03-20T06:37:15.111Z,-1.96
2018-03-20T06:38:15.123Z,-1.95
2018-03-20T06:39:15.122Z,-1.92
2018-03-20T06:40:15.137Z,-1.89
2018-03-20T06:41:15.127Z,-1.89
2018-03-20T06:42:15.132Z,-1.89
2018-03-20T06:43:15.133Z,-1.88
2018-03-20T06:44:15.138Z,-1.86
2018-03-20T06:45:15.176Z,-1.86
2018-03-20T06:46:15.154Z,-1.85
2018-03-20T06:47:15.135Z,-1.85
2018-03-20T06:48:15.175Z,-1.83
2018-03-20T06:49:15.171Z,-1.83
2018-03-20T06:50:15.152Z,-1.83
2018-03-20T06:51:15.151Z,-1.82
2018-03-20T06:52:15.177Z,-1.83
2018-03-20T06:53:15.158Z,-1.82
2018-03-20T06:54:15.157Z,-1.81
2018-03-20T06:55:15.164Z,-1.78
2018-03-20T06:56:15.178Z,-1.88
2018-03-20T06:57:15.170Z,-1.82
2018-03-20T06:58:15.205Z,-1.81
2018-03-20T06:59:15.207Z,-1.82
2018-03-20T07:00:15.174Z,-1.85
2018-03-20T07:01:15.184Z,-1.85
2018-03-20T07:02:15.190Z,-1.82
2018-03-20T07:03:15.228Z,-1.79
2018-03-20T07:04:15.208Z,-1.76
2018-03-20T07:05:15.195Z,-1.75
2018-03-20T07:06:15.332Z,-1.75
2018-03-20T07:07:15.210Z,-1.75
2018-03-20T07:08:15.230Z,-1.71
2018-03-20T07:09:15.215Z,-1.7
2018-03-20T07:10:15.224Z,-1.68
2018-03-20T07:11:15.232Z,-1.63
2018-03-20T07:12:15.227Z,-1.6
2018-03-20T07:13:15.238Z,-1.6
2018-03-20T07:14:15.256Z,-1.55
2018-03-20T07:15:15.243Z,-1.54
2018-03-20T07:16:15.241Z,-1.54
2018-03-20T07:17:15.257Z,-1.5
2018-03-20T07:18:15.248Z,-1.53
2018-03-20T07:19:15.250Z,-1.5
2018-03-20T07:20:15.263Z,-1.5
2018-03-20T07:21:15.251Z,-1.47
2018-03-20T07:22:15.251Z,-1.51
2018-03-20T07:23:15.262Z,-1.5
2018-03-20T07:24:15.295Z,-1.5
2018-03-20T07:25:15.278Z,-1.48
2018-03-20T07:26:15.277Z,-1.51
2018-03-20T07:27:15.283Z,-1.57
2018-03-20T07:28:15.472Z,-1.54
2018-03-20T07:29:15.313Z,-1.55
2018-03-20T07:30:15.341Z,-1.53
2018-03-20T07:31:15.309Z,-1.5
2018-03-20T07:32:15.297Z,-1.47
2018-03-20T07:33:15.297Z,-1.47
2018-03-20T07:34:15.326Z,-1.43
2018-03-20T07:35:15.304Z,-1.43
2018-03-20T07:36:15.322Z,-1.39
2018-03-20T07:37:15.314Z,-1.39
2018-03-20T07:38:15.323Z,-1.37
2018-03-20T07:39:15.485Z,-1.33
2018-03-20T07:40:15.328Z,-1.29
2018-03-20T07:41:15.318Z,-1.25
2018-03-20T07:42:15.390Z,-1.25
2018-03-20T07:43:15.329Z,-1.23
2018-03-20T07:44:15.378Z,-1.18
2018-03-20T07:45:15.353Z,-1.16
2018-03-20T07:46:15.344Z,-1.11
2018-03-20T07:47:15.349Z,-1.09
2018-03-20T07:48:15.379Z,-1.07
2018-03-20T07:49:15.358Z,-1.02
2018-03-20T07:50:15.361Z,-0.95
2018-03-20T07:51:15.376Z,-0.95
2018-03-20T07:52:15.400Z,-0.91
2018-03-20T07:53:15.384Z,-0.93
2018-03-20T07:54:15.397Z,-0.88
2018-03-20T07:55:15.400Z,-0.88
2018-03-20T07:56:15.398Z,-0.86
2018-03-20T07:57:15.401Z,-0.84
2018-03-20T07:58:15.410Z,-0.81
2018-03-20T07:59:15.430Z,-0.77
2018-03-20T08:00:15.549Z,-0.73
2018-03-20T08:01:15.433Z,-0.67
2018-03-20T08:02:15.432Z,-0.65
2018-03-20T08:03:15.438Z,-0.61
2018-03-20T08:04:15.433Z,-0.57
2018-03-20T08:05:15.467Z,-0.57
2018-03-20T08:06:15.446Z,-0.54
2018-03-20T08:07:15.446Z,-0.56
2018-03-20T08:08:15.449Z,-0.53
2018-03-20T08:09:15.462Z,-0.5
2018-03-20T08:10:15.502Z,-0.47
2018-03-20T08:11:15.488Z,-0.4
2018-03-20T08:12:15.472Z,-0.39
2018-03-20T08:13:15.478Z,-0.36
2018-03-20T08:14:15.488Z,-0.39
2018-03-20T08:15:15.516Z,-0.46
2018-03-20T08:16:15.500Z,-0.46
2018-03-20T08:17:15.506Z,-0.46
2018-03-20T08:18:15.499Z,-0.46
2018-03-20T08:19:15.497Z,-0.49
2018-03-20T08:20:15.548Z,-0.45
2018-03-20T08:21:15.510Z,-0.42
2018-03-20T08:22:15.513Z,-0.36
2018-03-20T08:23:15.505Z,-0.29
2018-03-20T08:24:15.516Z,-0.22
2018-03-20T08:25:15.542Z,-0.26
2018-03-20T08:26:15.514Z,-0.19
2018-03-20T08:27:15.519Z,-0.19
2018-03-20T08:28:15.547Z,-0.09
2018-03-20T08:29:15.608Z,-0.04
2018-03-20T08:30:15.543Z,0.01
2018-03-20T08:31:15.546Z,0.03
2018-03-20T08:32:15.541Z,0.08
2018-03-20T08:33:15.536Z,0.1
2018-03-20T08:34:15.537Z,0.1
2018-03-20T08:35:15.540Z,0.16
2018-03-20T08:36:15.536Z,0.16
2018-03-20T08:37:15.545Z,0.18
2018-03-20T08:38:15.618Z,0.2
2018-03-20T08:39:15.573Z,0.25
2018-03-20T08:40:15.605Z,0.25
2018-03-20T08:41:15.561Z,0.27
2018-03-20T08:42:15.557Z,0.27
2018-03-20T08:43:15.560Z,0.32
2018-03-20T08:44:15.564Z,0.33
2018-03-20T08:45:15.672Z,0.37
2018-03-20T08:46:15.572Z,0.38
2018-03-20T08:47:15.565Z,0.46
2018-03-20T08:48:15.572Z,0.48
2018-03-20T08:49:15.569Z,0.46
2018-03-20T08:50:15.604Z,0.38
2018-03-20T08:51:15.591Z,0.33
2018-03-20T08:52:15.588Z,0.4
2018-03-20T08:53:15.589Z,0.51
2018-03-20T08:54:15.596Z,0.54
2018-03-20T08:55:15.618Z,0.64
2018-03-20T08:56:15.731Z,0.68
2018-03-20T08:57:15.727Z,0.74
2018-03-20T08:58:15.610Z,0.75
2018-03-20T08:59:15.623Z,0.81
2018-03-20T09:00:15.767Z,0.76
2018-03-20T09:01:15.640Z,0.71
2018-03-20T09:02:15.639Z,0.68
2018-03-20T09:03:15.633Z,0.67
2018-03-20T09:04:15.646Z,0.65
2018-03-20T09:05:15.779Z,0.61
2018-03-20T09:06:15.671Z,0.53
2018-03-20T09:07:15.685Z,0.57
2018-03-20T09:08:15.660Z,0.58
2018-03-20T09:09:15.664Z,0.55
2018-03-20T09:10:15.722Z,0.55
2018-03-20T09:11:15.714Z,0.54
2018-03-20T09:12:15.748Z,0.63
2018-03-20T09:13:15.735Z,0.65
2018-03-20T09:14:15.735Z,0.64
2018-03-20T09:15:15.710Z,0.67
2018-03-20T09:16:15.946Z,0.69
2018-03-20T09:17:15.673Z,0.79
2018-03-20T09:18:15.673Z,0.88
2018-03-20T09:19:15.679Z,0.91
2018-03-20T09:20:15.697Z,0.95
2018-03-20T09:21:15.697Z,0.99
2018-03-20T09:22:15.687Z,0.98
2018-03-20T09:23:15.708Z,1.02
2018-03-20T09:24:15.704Z,1
2018-03-20T09:25:15.704Z,1.06
2018-03-20T09:26:15.733Z,1.09
2018-03-20T09:27:15.724Z,1.15
2018-03-20T09:28:15.705Z,1.16
2018-03-20T09:29:15.701Z,1.27
2018-03-20T09:30:15.703Z,1.36
2018-03-20T09:31:15.749Z,1.38
2018-03-20T09:32:15.720Z,1.27
2018-03-20T09:33:15.720Z,1.34
2018-03-20T09:34:15.739Z,1.4
2018-03-20T09:35:15.718Z,1.47
2018-03-20T09:36:15.749Z,1.57
2018-03-20T09:37:15.741Z,1.55
2018-03-20T09:38:15.761Z,1.55
2018-03-20T09:39:15.734Z,1.53
2018-03-20T09:40:15.746Z,1.57
2018-03-20T09:41:15.807Z,1.68
2018-03-20T09:42:15.758Z,1.69
2018-03-20T09:43:15.756Z,1.72
2018-03-20T09:44:15.810Z,1.65
2018-03-20T09:45:15.758Z,1.72
2018-03-20T09:46:15.755Z,1.72
2018-03-20T09:47:15.764Z,1.81
2018-03-20T09:48:15.763Z,1.73
2018-03-20T09:49:15.764Z,1.65
2018-03-20T09:50:15.924Z,1.66
2018-03-20T09:51:16.129Z,1.68
2018-03-20T09:52:15.790Z,1.75
2018-03-20T09:53:15.780Z,1.79
2018-03-20T09:54:15.887Z,1.86
2018-03-20T09:55:15.782Z,1.76
2018-03-20T09:56:15.813Z,1.68
2018-03-20T09:57:15.791Z,1.71
2018-03-20T09:58:15.778Z,1.75
2018-03-20T09:59:15.788Z,1.72
2018-03-20T10:00:15.873Z,1.76
2018-03-20T10:01:15.784Z,1.71
2018-03-20T10:02:15.790Z,1.71
2018-03-20T10:03:15.786Z,1.72
2018-03-20T10:04:15.791Z,1.73
2018-03-20T10:05:15.798Z,1.73
2018-03-20T10:06:15.820Z,1.79
2018-03-20T10:07:15.799Z,1.85
2018-03-20T10:08:15.799Z,1.9
2018-03-20T10:09:15.801Z,1.93
2018-03-20T10:10:15.798Z,1.9
2018-03-20T10:11:15.809Z,1.89
2018-03-20T10:12:15.941Z,1.99
2018-03-20T10:13:15.847Z,2.07
2018-03-20T10:14:15.824Z,2.13
2018-03-20T10:15:15.852Z,2.2
2018-03-20T10:16:15.851Z,2.26
2018-03-20T10:17:16.103Z,2.28
2018-03-20T10:18:15.841Z,2.31
2018-03-20T10:19:15.898Z,2.34
2018-03-20T10:20:16.168Z,2.36
2018-03-20T10:21:15.854Z,2.36
2018-03-20T10:22:15.879Z,2.43
2018-03-20T10:23:15.861Z,2.45
2018-03-20T10:24:15.870Z,2.44
2018-03-20T10:25:15.870Z,2.41
2018-03-20T10:26:15.994Z,2.27
2018-03-20T10:27:15.900Z,2.31
2018-03-20T10:28:15.872Z,2.31
2018-03-20T10:29:15.871Z,2.34
2018-03-20T10:30:15.879Z,2.34
2018-03-20T10:31:15.881Z,2.34
2018-03-20T10:32:15.878Z,2.37
2018-03-20T10:33:15.901Z,2.34
2018-03-20T10:34:15.902Z,2.3
2018-03-20T10:35:15.893Z,2.24
2018-03-20T10:36:15.874Z,2.28
2018-03-20T10:37:15.914Z,2.34
2018-03-20T10:38:15.926Z,2.36
2018-03-20T10:39:15.891Z,2.34
2018-03-20T10:40:15.894Z,2.21
2018-03-20T10:41:15.904Z,2.3
2018-03-20T10:42:15.912Z,2.44
2018-03-20T10:43:15.926Z,2.45
2018-03-20T10:44:15.916Z,2.45
2018-03-20T10:45:15.901Z,2.48
2018-03-20T10:46:15.901Z,2.49
2018-03-20T10:47:15.912Z,2.51
2018-03-20T10:48:15.945Z,2.51
2018-03-20T10:49:15.912Z,2.36
2018-03-20T10:50:15.923Z,2.31
2018-03-20T10:51:15.923Z,2.24
2018-03-20T10:52:15.928Z,2.16
2018-03-20T10:53:15.966Z,2.26
2018-03-20T10:54:15.933Z,2.38
2018-03-20T10:55:15.960Z,2.38
2018-03-20T10:56:15.937Z,2.38
2018-03-20T10:57:15.951Z,2.17
2018-03-20T10:58:16.072Z,2.11
2018-03-20T10:59:15.942Z,2.16
2018-03-20T11:00:15.955Z,2.16
2018-03-20T11:01:15.956Z,2.22
2018-03-20T11:02:15.981Z,2.26
2018-03-20T11:03:16.020Z,2.27
2018-03-20T11:04:16.017Z,2.27
2018-03-20T11:05:15.965Z,2.24
2018-03-20T11:06:15.966Z,2.14
2018-03-20T11:07:15.971Z,2.13
2018-03-20T11:08:16.019Z,2.13
2018-03-20T11:09:15.989Z,2.16
2018-03-20T11:10:15.994Z,2.14
2018-03-20T11:11:16.012Z,1.92
2018-03-20T11:12:15.991Z,1.81
2018-03-20T11:13:15.988Z,1.78
2018-03-20T11:14:15.998Z,1.85
2018-03-20T11:15:16.001Z,1.81
2018-03-20T11:16:16.009Z,1.81
2018-03-20T11:17:15.998Z,1.76
2018-03-20T11:18:16.010Z,1.43
2018-03-20T11:19:16.009Z,1.41
2018-03-20T11:20:16.008Z,1.28
2018-03-20T11:21:16.022Z,0.95
2018-03-20T11:22:16.028Z,0.65
2018-03-20T11:23:16.317Z,0.6
2018-03-20T11:24:16.034Z,0.5
2018-03-20T11:25:16.037Z,0.5
2018-03-20T11:26:16.027Z,0.63
2018-03-20T11:27:16.031Z,0.61
2018-03-20T11:28:16.091Z,0.69
2018-03-20T11:29:16.035Z,0.6
2018-03-20T11:30:16.048Z,0.44
2018-03-20T11:31:16.042Z,0.41
2018-03-20T11:32:16.048Z,0.38
2018-03-20T11:33:16.054Z,0.3
2018-03-20T11:34:16.059Z,0.23
2018-03-20T11:35:16.062Z,0.13
2018-03-20T11:36:16.069Z,0.15
2018-03-20T11:37:16.096Z,0.15
2018-03-20T11:38:16.109Z,0.19
2018-03-20T11:39:16.068Z,0.32
2018-03-20T11:40:16.071Z,0.2
2018-03-20T11:41:16.077Z,0.33
2018-03-20T11:42:16.073Z,0.36
2018-03-20T11:43:16.101Z,0.43
2018-03-20T11:44:16.101Z,0.38
2018-03-20T11:45:16.088Z,0.36
2018-03-20T11:46:16.096Z,0.36
2018-03-20T11:47:16.102Z,0.43
2018-03-20T11:48:16.410Z,0.44
2018-03-20T11:49:16.101Z,0.48
2018-03-20T11:50:16.107Z,0.47
2018-03-20T11:51:16.125Z,0.37
2018-03-20T11:52:16.108Z,0.41
2018-03-20T11:53:16.137Z,0.41
2018-03-20T11:54:16.117Z,0.36
2018-03-20T11:55:16.121Z,0.44
2018-03-20T11:56:16.120Z,0.43
2018-03-20T11:57:16.125Z,0.48
2018-03-20T11:58:16.162Z,0.37
2018-03-20T11:59:16.168Z,0.44
2018-03-20T12:00:16.127Z,0.58
2018-03-20T12:01:16.195Z,0.58
2018-03-20T12:02:16.284Z,0.67
2018-03-20T12:03:16.163Z,0.75
2018-03-20T12:04:16.160Z,0.76
2018-03-20T12:05:16.159Z,0.83
2018-03-20T12:06:16.149Z,0.76
2018-03-20T12:07:16.161Z,0.75
2018-03-20T12:08:16.167Z,0.71
2018-03-20T12:09:16.170Z,0.79
2018-03-20T12:10:16.173Z,0.74
2018-03-20T12:11:16.159Z,0.71
2018-03-20T12:12:16.169Z,0.75
2018-03-20T12:13:16.188Z,0.89
2018-03-20T12:14:16.166Z,0.92
2018-03-20T12:15:16.172Z,0.95
2018-03-20T12:16:16.202Z,0.89
2018-03-20T12:17:16.188Z,0.98
2018-03-20T12:18:16.212Z,0.98
2018-03-20T12:19:16.197Z,0.89
2018-03-20T12:20:16.189Z,0.86
2018-03-20T12:21:16.200Z,0.91
2018-03-20T12:22:16.205Z,0.96
2018-03-20T12:23:16.247Z,1.04
2018-03-20T12:24:16.223Z,1
2018-03-20T12:25:16.607Z,1.02
2018-03-20T12:26:16.219Z,0.99
2018-03-20T12:27:16.212Z,0.98
2018-03-20T12:28:16.209Z,1.03
2018-03-20T12:29:16.253Z,1.17
2018-03-20T12:30:16.230Z,1.15
2018-03-20T12:31:16.218Z,1.2
2018-03-20T12:32:16.224Z,1.09
2018-03-20T12:33:16.226Z,1.11
2018-03-20T12:34:16.264Z,1.19
2018-03-20T12:35:16.278Z,1.09
2018-03-20T12:36:16.247Z,1.15
2018-03-20T12:37:16.269Z,1.2
2018-03-20T12:38:16.251Z,1.31
2018-03-20T12:39:16.289Z,1.41
2018-03-20T12:40:16.244Z,1.43
2018-03-20T12:41:16.254Z,1.47
2018-03-20T12:42:16.258Z,1.27
2018-03-20T12:43:16.261Z,1.27
2018-03-20T12:44:16.284Z,1.17
2018-03-20T12:45:16.266Z,1.22
2018-03-20T12:46:16.267Z,1.26
2018-03-20T12:47:16.278Z,1.27
2018-03-20T12:48:16.280Z,1.31
2018-03-20T12:49:16.273Z,1.41
2018-03-20T12:50:16.284Z,1.37
2018-03-20T12:51:16.290Z,1.34
2018-03-20T12:52:16.293Z,1.37
2018-03-20T12:53:16.317Z,1.43
2018-03-20T12:54:16.286Z,1.48
2018-03-20T12:55:16.327Z,1.58
2018-03-20T12:56:16.295Z,1.64
2018-03-20T12:57:16.291Z,1.72
2018-03-20T12:58:16.293Z,1.69
2018-03-20T12:59:16.295Z,1.71
2018-03-20T13:00:16.315Z,1.66
2018-03-20T13:01:16.326Z,1.73
2018-03-20T13:02:16.312Z,1.76
2018-03-20T13:03:16.387Z,1.71
2018-03-20T13:04:16.349Z,1.66